sensor_id;sensor_type;location;lat;lon;timestamp;P1;durP1;ratioP1;P2;durP2;ratioP2
19448;SDS011;9863;49.404;8.246;2023-12-20T00:02:11;3.60;;;0.40;;
19448;SDS011;9863;49.404;8.246;2023-12-20T00:04:38;0.40;;;0.20;;
19448;SDS011;9863;49.404;8.246;2023-12-20T00:07:05;2.00;;;0.40;;
19448;SDS011;9863;49.404;8.246;2023-12-20T00:09:32;0.32;;;0.20;;
19448;SDS011;9863;49.404;8.246;2023-12-20T00:11:59;0.77;;;0.30;;
19448;SDS011;9863;49.404;8.246;2023-12-20T00:14:26;0.40;;;0.30;;
19448;SDS011;9863;49.404;8.246;2023-12-20T00:16:53;0.20;;;0.13;;
19448;SDS011;9863;49.404;8.246;2023-12-20T00:19:19;0.90;;;0.28;;
19448;SDS011;9863;49.404;8.246;2023-12-20T00:21:47;0.30;;;0.30;;
19448;SDS011;9863;49.404;8.246;2023-12-20T00:24:14;0.22;;;0.20;;
19448;SDS011;9863;49.404;8.246;2023-12-20T00:26:41;0.25;;;0.25;;
19448;SDS011;9863;49.404;8.246;2023-12-20T00:29:08;0.30;;;0.30;;
19448;SDS011;9863;49.404;8.246;2023-12-20T00:31:35;0.30;;;0.20;;
19448;SDS011;9863;49.404;8.246;2023-12-20T00:34:02;0.40;;;0.25;;
19448;SDS011;9863;49.404;8.246;2023-12-20T00:36:29;0.28;;;0.15;;
19448;SDS011;9863;49.404;8.246;2023-12-20T00:38:56;0.13;;;0.10;;
19448;SDS011;9863;49.404;8.246;2023-12-20T00:41:23;0.20;;;0.10;;
19448;SDS011;9863;49.404;8.246;2023-12-20T00:43:50;0.20;;;0.20;;
19448;SDS011;9863;49.404;8.246;2023-12-20T00:46:17;0.13;;;0.10;;
19448;SDS011;9863;49.404;8.246;2023-12-20T00:48:44;0.35;;;0.13;;
19448;SDS011;9863;49.404;8.246;2023-12-20T00:51:12;0.10;;;0.10;;
19448;SDS011;9863;49.404;8.246;2023-12-20T00:53:38;0.20;;;0.20;;
19448;SDS011;9863;49.404;8.246;2023-12-20T00:56:05;0.30;;;0.20;;
19448;SDS011;9863;49.404;8.246;2023-12-20T00:58:32;0.15;;;0.10;;
19448;SDS011;9863;49.404;8.246;2023-12-20T01:00:59;0.40;;;0.15;;
19448;SDS011;9863;49.404;8.246;2023-12-20T01:03:26;0.38;;;0.10;;
19448;SDS011;9863;49.404;8.246;2023-12-20T01:05:53;0.52;;;0.17;;
19448;SDS011;9863;49.404;8.246;2023-12-20T01:08:20;0.17;;;0.10;;
19448;SDS011;9863;49.404;8.246;2023-12-20T01:10:46;0.13;;;0.00;;
19448;SDS011;9863;49.404;8.246;2023-12-20T01:13:16;0.45;;;0.30;;
19448;SDS011;9863;49.404;8.246;2023-12-20T01:15:43;0.10;;;0.10;;
19448;SDS011;9863;49.404;8.246;2023-12-20T01:18:10;0.17;;;0.08;;
19448;SDS011;9863;49.404;8.246;2023-12-20T01:20:37;0.10;;;0.10;;
19448;SDS011;9863;49.404;8.246;2023-12-20T01:23:04;0.10;;;0.10;;
19448;SDS011;9863;49.404;8.246;2023-12-20T01:25:31;0.10;;;0.10;;
19448;SDS011;9863;49.404;8.246;2023-12-20T01:27:57;0.30;;;0.20;;
19448;SDS011;9863;49.404;8.246;2023-12-20T01:30:24;0.32;;;0.03;;
19448;SDS011;9863;49.404;8.246;2023-12-20T01:32:51;0.20;;;0.10;;
19448;SDS011;9863;49.404;8.246;2023-12-20T01:35:18;0.40;;;0.10;;
19448;SDS011;9863;49.404;8.246;2023-12-20T01:37:45;0.08;;;0.08;;
19448;SDS011;9863;49.404;8.246;2023-12-20T01:40:12;0.10;;;0.10;;
19448;SDS011;9863;49.404;8.246;2023-12-20T01:42:39;0.10;;;0.10;;
19448;SDS011;9863;49.404;8.246;2023-12-20T01:45:06;0.10;;;0.08;;
19448;SDS011;9863;49.404;8.246;2023-12-20T01:47:33;0.80;;;0.20;;
19448;SDS011;9863;49.404;8.246;2023-12-20T01:50:00;0.28;;;0.20;;
19448;SDS011;9863;49.404;8.246;2023-12-20T01:52:30;0.43;;;0.20;;
19448;SDS011;9863;49.404;8.246;2023-12-20T01:54:57;0.25;;;0.10;;
19448;SDS011;9863;49.404;8.246;2023-12-20T01:57:29;0.10;;;0.10;;
19448;SDS011;9863;49.404;8.246;2023-12-20T01:59:56;0.15;;;0.10;;
19448;SDS011;9863;49.404;8.246;2023-12-20T02:02:23;0.22;;;0.20;;
19448;SDS011;9863;49.404;8.246;2023-12-20T02:04:51;0.35;;;0.10;;
19448;SDS011;9863;49.404;8.246;2023-12-20T02:07:21;1.13;;;0.20;;
19448;SDS011;9863;49.404;8.246;2023-12-20T02:09:49;0.10;;;0.10;;
19448;SDS011;9863;49.404;8.246;2023-12-20T02:12:16;0.15;;;0.10;;
19448;SDS011;9863;49.404;8.246;2023-12-20T02:14:43;0.80;;;0.13;;
19448;SDS011;9863;49.404;8.246;2023-12-20T02:17:10;0.40;;;0.10;;
19448;SDS011;9863;49.404;8.246;2023-12-20T02:19:37;1.23;;;0.35;;
19448;SDS011;9863;49.404;8.246;2023-12-20T02:24:40;0.45;;;0.10;;
19448;SDS011;9863;49.404;8.246;2023-12-20T02:27:07;0.20;;;0.10;;
19448;SDS011;9863;49.404;8.246;2023-12-20T02:29:35;0.20;;;0.10;;
19448;SDS011;9863;49.404;8.246;2023-12-20T02:32:02;0.47;;;0.30;;
19448;SDS011;9863;49.404;8.246;2023-12-20T02:34:29;0.45;;;0.22;;
19448;SDS011;9863;49.404;8.246;2023-12-20T02:36:56;0.43;;;0.15;;
19448;SDS011;9863;49.404;8.246;2023-12-20T02:39:23;0.10;;;0.10;;
19448;SDS011;9863;49.404;8.246;2023-12-20T02:41:50;0.13;;;0.13;;
19448;SDS011;9863;49.404;8.246;2023-12-20T02:44:16;0.63;;;0.20;;
19448;SDS011;9863;49.404;8.246;2023-12-20T02:46:43;0.30;;;0.20;;
19448;SDS011;9863;49.404;8.246;2023-12-20T02:49:10;0.20;;;0.20;;
19448;SDS011;9863;49.404;8.246;2023-12-20T02:51:37;0.75;;;0.10;;
19448;SDS011;9863;49.404;8.246;2023-12-20T02:54:07;0.90;;;0.10;;
19448;SDS011;9863;49.404;8.246;2023-12-20T02:56:33;0.15;;;0.15;;
19448;SDS011;9863;49.404;8.246;2023-12-20T02:59:01;0.20;;;0.10;;
19448;SDS011;9863;49.404;8.246;2023-12-20T03:01:28;0.20;;;0.20;;
19448;SDS011;9863;49.404;8.246;2023-12-20T03:03:56;0.22;;;0.20;;
19448;SDS011;9863;49.404;8.246;2023-12-20T03:06:23;0.60;;;0.30;;
19448;SDS011;9863;49.404;8.246;2023-12-20T03:08:51;0.50;;;0.13;;
19448;SDS011;9863;49.404;8.246;2023-12-20T03:11:18;0.30;;;0.20;;
19448;SDS011;9863;49.404;8.246;2023-12-20T03:13:45;0.13;;;0.10;;
19448;SDS011;9863;49.404;8.246;2023-12-20T03:16:12;0.15;;;0.10;;
19448;SDS011;9863;49.404;8.246;2023-12-20T03:18:39;0.30;;;0.13;;
19448;SDS011;9863;49.404;8.246;2023-12-20T03:21:06;0.38;;;0.20;;
19448;SDS011;9863;49.404;8.246;2023-12-20T03:23:33;0.20;;;0.20;;
19448;SDS011;9863;49.404;8.246;2023-12-20T03:26:00;0.20;;;0.20;;
19448;SDS011;9863;49.404;8.246;2023-12-20T03:28:27;0.95;;;0.20;;
19448;SDS011;9863;49.404;8.246;2023-12-20T03:30:54;0.35;;;0.35;;
19448;SDS011;9863;49.404;8.246;2023-12-20T03:33:21;0.30;;;0.20;;
19448;SDS011;9863;49.404;8.246;2023-12-20T03:35:48;0.52;;;0.28;;
19448;SDS011;9863;49.404;8.246;2023-12-20T03:38:15;0.20;;;0.20;;
19448;SDS011;9863;49.404;8.246;2023-12-20T03:40:42;6.60;;;2.72;;
19448;SDS011;9863;49.404;8.246;2023-12-20T03:43:09;0.88;;;0.63;;
19448;SDS011;9863;49.404;8.246;2023-12-20T03:45:36;1.77;;;0.70;;
19448;SDS011;9863;49.404;8.246;2023-12-20T03:48:02;0.43;;;0.32;;
19448;SDS011;9863;49.404;8.246;2023-12-20T03:50:30;0.30;;;0.30;;
19448;SDS011;9863;49.404;8.246;2023-12-20T03:52:56;0.30;;;0.20;;
19448;SDS011;9863;49.404;8.246;2023-12-20T03:55:23;0.55;;;0.30;;
19448;SDS011;9863;49.404;8.246;2023-12-20T03:57:50;0.22;;;0.20;;
19448;SDS011;9863;49.404;8.246;2023-12-20T04:00:17;0.20;;;0.20;;
19448;SDS011;9863;49.404;8.246;2023-12-20T04:02:44;0.30;;;0.30;;
19448;SDS011;9863;49.404;8.246;2023-12-20T04:05:11;0.30;;;0.30;;
19448;SDS011;9863;49.404;8.246;2023-12-20T04:07:38;0.40;;;0.30;;
19448;SDS011;9863;49.404;8.246;2023-12-20T04:10:05;0.70;;;0.50;;
19448;SDS011;9863;49.404;8.246;2023-12-20T04:12:33;0.50;;;0.50;;
19448;SDS011;9863;49.404;8.246;2023-12-20T04:15:00;0.30;;;0.30;;
19448;SDS011;9863;49.404;8.246;2023-12-20T04:17:27;0.35;;;0.35;;
19448;SDS011;9863;49.404;8.246;2023-12-20T04:19:53;0.65;;;0.40;;
19448;SDS011;9863;49.404;8.246;2023-12-20T04:22:21;0.70;;;0.50;;
19448;SDS011;9863;49.404;8.246;2023-12-20T04:24:48;1.38;;;0.73;;
19448;SDS011;9863;49.404;8.246;2023-12-20T04:27:15;0.70;;;0.55;;
19448;SDS011;9863;49.404;8.246;2023-12-20T04:29:41;0.50;;;0.30;;
19448;SDS011;9863;49.404;8.246;2023-12-20T04:32:09;0.47;;;0.40;;
19448;SDS011;9863;49.404;8.246;2023-12-20T04:34:36;0.77;;;0.50;;
19448;SDS011;9863;49.404;8.246;2023-12-20T04:37:03;0.30;;;0.30;;
19448;SDS011;9863;49.404;8.246;2023-12-20T04:39:30;1.38;;;0.60;;
19448;SDS011;9863;49.404;8.246;2023-12-20T04:41:57;1.40;;;0.85;;
19448;SDS011;9863;49.404;8.246;2023-12-20T04:44:24;0.55;;;0.50;;
19448;SDS011;9863;49.404;8.246;2023-12-20T04:46:50;1.88;;;0.68;;
19448;SDS011;9863;49.404;8.246;2023-12-20T04:49:17;1.23;;;0.60;;
19448;SDS011;9863;49.404;8.246;2023-12-20T04:51:44;0.50;;;0.40;;
19448;SDS011;9863;49.404;8.246;2023-12-20T04:54:11;1.33;;;0.77;;
19448;SDS011;9863;49.404;8.246;2023-12-20T04:56:38;0.95;;;0.65;;
19448;SDS011;9863;49.404;8.246;2023-12-20T04:59:05;1.05;;;0.63;;
19448;SDS011;9863;49.404;8.246;2023-12-20T05:01:32;2.22;;;1.00;;
19448;SDS011;9863;49.404;8.246;2023-12-20T05:03:59;1.75;;;1.08;;
19448;SDS011;9863;49.404;8.246;2023-12-20T05:06:26;1.30;;;1.00;;
19448;SDS011;9863;49.404;8.246;2023-12-20T05:08:53;2.92;;;0.90;;
19448;SDS011;9863;49.404;8.246;2023-12-20T05:11:20;0.90;;;0.82;;
19448;SDS011;9863;49.404;8.246;2023-12-20T05:13:46;2.45;;;1.02;;
19448;SDS011;9863;49.404;8.246;2023-12-20T05:16:16;0.90;;;0.80;;
19448;SDS011;9863;49.404;8.246;2023-12-20T05:18:45;1.30;;;0.93;;
19448;SDS011;9863;49.404;8.246;2023-12-20T05:21:13;2.53;;;0.90;;
19448;SDS011;9863;49.404;8.246;2023-12-20T05:23:40;1.73;;;0.80;;
19448;SDS011;9863;49.404;8.246;2023-12-20T05:26:06;1.95;;;1.20;;
19448;SDS011;9863;49.404;8.246;2023-12-20T05:28:33;1.25;;;0.90;;
19448;SDS011;9863;49.404;8.246;2023-12-20T05:31:00;0.88;;;0.60;;
19448;SDS011;9863;49.404;8.246;2023-12-20T05:33:27;0.88;;;0.63;;
19448;SDS011;9863;49.404;8.246;2023-12-20T05:35:54;0.90;;;0.60;;
19448;SDS011;9863;49.404;8.246;2023-12-20T05:38:21;1.17;;;0.63;;
19448;SDS011;9863;49.404;8.246;2023-12-20T05:40:48;1.33;;;0.70;;
19448;SDS011;9863;49.404;8.246;2023-12-20T05:43:15;0.85;;;0.68;;
19448;SDS011;9863;49.404;8.246;2023-12-20T05:45:42;0.57;;;0.50;;
19448;SDS011;9863;49.404;8.246;2023-12-20T05:48:09;0.65;;;0.50;;
19448;SDS011;9863;49.404;8.246;2023-12-20T05:50:36;1.17;;;0.57;;
19448;SDS011;9863;49.404;8.246;2023-12-20T05:53:03;0.80;;;0.65;;
19448;SDS011;9863;49.404;8.246;2023-12-20T05:55:30;1.05;;;0.88;;
19448;SDS011;9863;49.404;8.246;2023-12-20T05:57:57;1.10;;;0.90;;
19448;SDS011;9863;49.404;8.246;2023-12-20T06:00:23;1.58;;;0.90;;
19448;SDS011;9863;49.404;8.246;2023-12-20T06:02:51;0.80;;;0.68;;
19448;SDS011;9863;49.404;8.246;2023-12-20T06:05:18;0.45;;;0.43;;
19448;SDS011;9863;49.404;8.246;2023-12-20T06:07:45;2.05;;;0.80;;
19448;SDS011;9863;49.404;8.246;2023-12-20T06:10:15;2.92;;;0.80;;
19448;SDS011;9863;49.404;8.246;2023-12-20T06:12:42;1.58;;;0.90;;
19448;SDS011;9863;49.404;8.246;2023-12-20T06:15:11;1.75;;;1.00;;
19448;SDS011;9863;49.404;8.246;2023-12-20T06:17:38;2.15;;;0.80;;
19448;SDS011;9863;49.404;8.246;2023-12-20T06:20:06;1.23;;;0.80;;
19448;SDS011;9863;49.404;8.246;2023-12-20T06:22:35;0.60;;;0.60;;
19448;SDS011;9863;49.404;8.246;2023-12-20T06:25:02;1.83;;;1.00;;
19448;SDS011;9863;49.404;8.246;2023-12-20T06:27:29;3.35;;;0.80;;
19448;SDS011;9863;49.404;8.246;2023-12-20T06:29:57;2.03;;;1.13;;
19448;SDS011;9863;49.404;8.246;2023-12-20T06:32:24;3.03;;;1.02;;
19448;SDS011;9863;49.404;8.246;2023-12-20T06:34:51;2.17;;;1.13;;
19448;SDS011;9863;49.404;8.246;2023-12-20T06:37:18;1.70;;;0.60;;
19448;SDS011;9863;49.404;8.246;2023-12-20T06:39:46;1.92;;;1.00;;
19448;SDS011;9863;49.404;8.246;2023-12-20T06:42:13;1.20;;;0.85;;
19448;SDS011;9863;49.404;8.246;2023-12-20T06:44:39;1.23;;;0.82;;
19448;SDS011;9863;49.404;8.246;2023-12-20T06:47:06;1.88;;;1.00;;
19448;SDS011;9863;49.404;8.246;2023-12-20T06:49:34;3.90;;;1.02;;
19448;SDS011;9863;49.404;8.246;2023-12-20T06:52:01;0.70;;;0.65;;
19448;SDS011;9863;49.404;8.246;2023-12-20T06:54:28;1.60;;;0.65;;
19448;SDS011;9863;49.404;8.246;2023-12-20T06:56:55;1.35;;;0.77;;
19448;SDS011;9863;49.404;8.246;2023-12-20T06:59:22;1.15;;;0.75;;
19448;SDS011;9863;49.404;8.246;2023-12-20T07:01:49;2.55;;;0.93;;
19448;SDS011;9863;49.404;8.246;2023-12-20T07:04:16;1.88;;;0.70;;
19448;SDS011;9863;49.404;8.246;2023-12-20T07:06:47;0.57;;;0.50;;
19448;SDS011;9863;49.404;8.246;2023-12-20T07:09:17;1.33;;;0.63;;
19448;SDS011;9863;49.404;8.246;2023-12-20T07:11:44;0.45;;;0.40;;
19448;SDS011;9863;49.404;8.246;2023-12-20T07:14:11;1.27;;;0.40;;
19448;SDS011;9863;49.404;8.246;2023-12-20T07:16:38;0.93;;;0.40;;
19448;SDS011;9863;49.404;8.246;2023-12-20T07:19:05;1.00;;;0.40;;
19448;SDS011;9863;49.404;8.246;2023-12-20T07:21:32;1.13;;;0.60;;
19448;SDS011;9863;49.404;8.246;2023-12-20T07:23:58;0.80;;;0.40;;
19448;SDS011;9863;49.404;8.246;2023-12-20T07:26:25;2.97;;;0.40;;
19448;SDS011;9863;49.404;8.246;2023-12-20T07:28:52;1.30;;;0.50;;
19448;SDS011;9863;49.404;8.246;2023-12-20T07:31:19;1.45;;;0.40;;
19448;SDS011;9863;49.404;8.246;2023-12-20T07:33:46;3.03;;;0.50;;
19448;SDS011;9863;49.404;8.246;2023-12-20T07:36:13;1.83;;;0.60;;
19448;SDS011;9863;49.404;8.246;2023-12-20T07:38:39;4.07;;;0.98;;
19448;SDS011;9863;49.404;8.246;2023-12-20T07:41:09;0.57;;;0.30;;
19448;SDS011;9863;49.404;8.246;2023-12-20T07:43:37;0.93;;;0.40;;
19448;SDS011;9863;49.404;8.246;2023-12-20T07:46:07;2.08;;;0.55;;
19448;SDS011;9863;49.404;8.246;2023-12-20T07:48:35;2.13;;;0.80;;
19448;SDS011;9863;49.404;8.246;2023-12-20T07:51:02;2.80;;;0.52;;
19448;SDS011;9863;49.404;8.246;2023-12-20T07:53:30;1.48;;;0.47;;
19448;SDS011;9863;49.404;8.246;2023-12-20T07:55:56;1.00;;;0.65;;
19448;SDS011;9863;49.404;8.246;2023-12-20T07:58:25;1.92;;;0.38;;
19448;SDS011;9863;49.404;8.246;2023-12-20T08:01:11;1.60;;;0.60;;
19448;SDS011;9863;49.404;8.246;2023-12-20T08:03:38;0.50;;;0.43;;
19448;SDS011;9863;49.404;8.246;2023-12-20T08:06:05;4.57;;;0.98;;
19448;SDS011;9863;49.404;8.246;2023-12-20T08:08:32;1.30;;;0.60;;
19448;SDS011;9863;49.404;8.246;2023-12-20T08:10:58;0.80;;;0.60;;
19448;SDS011;9863;49.404;8.246;2023-12-20T08:13:26;1.65;;;0.75;;
19448;SDS011;9863;49.404;8.246;2023-12-20T08:15:53;0.70;;;0.50;;
19448;SDS011;9863;49.404;8.246;2023-12-20T08:18:20;2.47;;;0.80;;
19448;SDS011;9863;49.404;8.246;2023-12-20T08:20:47;0.95;;;0.80;;
19448;SDS011;9863;49.404;8.246;2023-12-20T08:23:15;2.72;;;0.80;;
19448;SDS011;9863;49.404;8.246;2023-12-20T08:25:42;2.90;;;1.13;;
19448;SDS011;9863;49.404;8.246;2023-12-20T08:28:08;2.83;;;0.65;;
19448;SDS011;9863;49.404;8.246;2023-12-20T08:30:35;0.85;;;0.47;;
19448;SDS011;9863;49.404;8.246;2023-12-20T08:33:02;2.67;;;0.60;;
19448;SDS011;9863;49.404;8.246;2023-12-20T08:35:29;1.63;;;0.90;;
19448;SDS011;9863;49.404;8.246;2023-12-20T08:37:56;3.03;;;0.70;;
19448;SDS011;9863;49.404;8.246;2023-12-20T08:40:23;1.65;;;0.75;;
19448;SDS011;9863;49.404;8.246;2023-12-20T08:42:50;3.38;;;1.10;;
19448;SDS011;9863;49.404;8.246;2023-12-20T08:45:17;1.80;;;0.63;;
19448;SDS011;9863;49.404;8.246;2023-12-20T08:47:43;2.63;;;0.60;;
19448;SDS011;9863;49.404;8.246;2023-12-20T08:50:12;2.78;;;0.60;;
19448;SDS011;9863;49.404;8.246;2023-12-20T08:52:39;0.47;;;0.40;;
19448;SDS011;9863;49.404;8.246;2023-12-20T08:55:05;2.65;;;0.80;;
19448;SDS011;9863;49.404;8.246;2023-12-20T08:57:33;6.68;;;0.85;;
19448;SDS011;9863;49.404;8.246;2023-12-20T09:00:00;2.35;;;0.90;;
19448;SDS011;9863;49.404;8.246;2023-12-20T09:02:27;2.15;;;0.80;;
19448;SDS011;9863;49.404;8.246;2023-12-20T09:04:54;2.95;;;0.70;;
19448;SDS011;9863;49.404;8.246;2023-12-20T09:07:22;1.13;;;0.80;;
19448;SDS011;9863;49.404;8.246;2023-12-20T09:09:53;2.65;;;0.95;;
19448;SDS011;9863;49.404;8.246;2023-12-20T09:12:20;2.38;;;0.80;;
19448;SDS011;9863;49.404;8.246;2023-12-20T09:14:47;8.80;;;1.02;;
19448;SDS011;9863;49.404;8.246;2023-12-20T09:17:15;3.75;;;1.02;;
19448;SDS011;9863;49.404;8.246;2023-12-20T09:19:43;5.10;;;1.00;;
19448;SDS011;9863;49.404;8.246;2023-12-20T09:22:13;3.47;;;0.82;;
19448;SDS011;9863;49.404;8.246;2023-12-20T09:24:40;3.10;;;1.10;;
19448;SDS011;9863;49.404;8.246;2023-12-20T09:27:06;2.20;;;0.93;;
19448;SDS011;9863;49.404;8.246;2023-12-20T09:29:33;3.13;;;1.00;;
19448;SDS011;9863;49.404;8.246;2023-12-20T09:32:00;3.20;;;0.80;;
19448;SDS011;9863;49.404;8.246;2023-12-20T09:34:27;4.60;;;0.80;;
19448;SDS011;9863;49.404;8.246;2023-12-20T09:36:54;3.40;;;1.13;;
19448;SDS011;9863;49.404;8.246;2023-12-20T09:39:21;4.93;;;1.00;;
19448;SDS011;9863;49.404;8.246;2023-12-20T09:44:32;2.85;;;1.00;;
19448;SDS011;9863;49.404;8.246;2023-12-20T09:47:01;4.55;;;0.90;;
19448;SDS011;9863;49.404;8.246;2023-12-20T09:49:29;6.20;;;0.80;;
19448;SDS011;9863;49.404;8.246;2023-12-20T09:51:57;4.47;;;1.02;;
19448;SDS011;9863;49.404;8.246;2023-12-20T09:54:25;2.80;;;1.08;;
19448;SDS011;9863;49.404;8.246;2023-12-20T09:56:52;3.30;;;0.80;;
19448;SDS011;9863;49.404;8.246;2023-12-20T09:59:19;2.85;;;1.65;;
19448;SDS011;9863;49.404;8.246;2023-12-20T10:01:46;2.63;;;0.73;;
19448;SDS011;9863;49.404;8.246;2023-12-20T10:04:15;2.53;;;0.68;;
19448;SDS011;9863;49.404;8.246;2023-12-20T10:06:55;3.17;;;1.10;;
19448;SDS011;9863;49.404;8.246;2023-12-20T10:09:23;3.85;;;1.00;;
19448;SDS011;9863;49.404;8.246;2023-12-20T10:11:53;1.30;;;0.60;;
19448;SDS011;9863;49.404;8.246;2023-12-20T10:14:25;7.15;;;1.10;;
19448;SDS011;9863;49.404;8.246;2023-12-20T10:17:01;4.05;;;0.93;;
19448;SDS011;9863;49.404;8.246;2023-12-20T10:19:36;4.90;;;0.90;;
19448;SDS011;9863;49.404;8.246;2023-12-20T10:22:08;3.47;;;0.88;;
19448;SDS011;9863;49.404;8.246;2023-12-20T10:24:35;3.90;;;0.90;;
19448;SDS011;9863;49.404;8.246;2023-12-20T10:27:07;1.45;;;0.70;;
19448;SDS011;9863;49.404;8.246;2023-12-20T10:29:37;1.30;;;0.60;;
19448;SDS011;9863;49.404;8.246;2023-12-20T10:32:21;4.03;;;0.90;;
19448;SDS011;9863;49.404;8.246;2023-12-20T10:34:48;7.72;;;0.85;;
19448;SDS011;9863;49.404;8.246;2023-12-20T10:37:14;3.38;;;1.10;;
19448;SDS011;9863;49.404;8.246;2023-12-20T10:39:42;4.35;;;0.90;;
19448;SDS011;9863;49.404;8.246;2023-12-20T10:42:12;2.40;;;1.00;;
19448;SDS011;9863;49.404;8.246;2023-12-20T10:44:40;4.57;;;0.88;;
19448;SDS011;9863;49.404;8.246;2023-12-20T10:47:06;3.42;;;0.90;;
19448;SDS011;9863;49.404;8.246;2023-12-20T10:49:34;2.65;;;0.88;;
19448;SDS011;9863;49.404;8.246;2023-12-20T10:52:03;0.95;;;0.70;;
19448;SDS011;9863;49.404;8.246;2023-12-20T10:54:30;1.50;;;0.90;;
19448;SDS011;9863;49.404;8.246;2023-12-20T10:56:57;4.18;;;1.45;;
19448;SDS011;9863;49.404;8.246;2023-12-20T10:59:25;2.25;;;0.85;;
19448;SDS011;9863;49.404;8.246;2023-12-20T11:01:54;1.48;;;0.88;;
19448;SDS011;9863;49.404;8.246;2023-12-20T11:04:24;3.22;;;0.73;;
19448;SDS011;9863;49.404;8.246;2023-12-20T11:06:55;2.55;;;0.90;;
19448;SDS011;9863;49.404;8.246;2023-12-20T11:09:26;4.40;;;0.70;;
19448;SDS011;9863;49.404;8.246;2023-12-20T11:12:13;2.78;;;0.93;;
19448;SDS011;9863;49.404;8.246;2023-12-20T11:17:14;5.13;;;1.40;;
19448;SDS011;9863;49.404;8.246;2023-12-20T11:22:22;3.45;;;0.93;;
19448;SDS011;9863;49.404;8.246;2023-12-20T11:24:51;5.37;;;1.10;;
19448;SDS011;9863;49.404;8.246;2023-12-20T11:27:19;3.13;;;0.80;;
19448;SDS011;9863;49.404;8.246;2023-12-20T11:29:53;1.63;;;0.88;;
19448;SDS011;9863;49.404;8.246;2023-12-20T11:34:59;2.50;;;1.05;;
19448;SDS011;9863;49.404;8.246;2023-12-20T11:37:36;5.72;;;1.13;;
19448;SDS011;9863;49.404;8.246;2023-12-20T11:40:07;2.67;;;1.10;;
19448;SDS011;9863;49.404;8.246;2023-12-20T11:42:59;3.85;;;1.38;;
19448;SDS011;9863;49.404;8.246;2023-12-20T11:45:24;3.70;;;1.15;;
19448;SDS011;9863;49.404;8.246;2023-12-20T11:47:56;4.25;;;1.17;;
19448;SDS011;9863;49.404;8.246;2023-12-20T11:50:24;3.95;;;1.00;;
19448;SDS011;9863;49.404;8.246;2023-12-20T11:52:52;3.58;;;0.90;;
19448;SDS011;9863;49.404;8.246;2023-12-20T11:55:19;4.70;;;1.17;;
19448;SDS011;9863;49.404;8.246;2023-12-20T11:57:47;4.57;;;1.38;;
19448;SDS011;9863;49.404;8.246;2023-12-20T12:00:14;4.50;;;1.13;;
19448;SDS011;9863;49.404;8.246;2023-12-20T12:02:42;2.85;;;1.10;;
19448;SDS011;9863;49.404;8.246;2023-12-20T12:05:11;3.78;;;1.23;;
19448;SDS011;9863;49.404;8.246;2023-12-20T12:07:38;4.65;;;1.15;;
19448;SDS011;9863;49.404;8.246;2023-12-20T12:10:05;3.10;;;0.90;;
19448;SDS011;9863;49.404;8.246;2023-12-20T12:12:34;5.25;;;1.20;;
19448;SDS011;9863;49.404;8.246;2023-12-20T12:15:01;3.30;;;1.00;;
19448;SDS011;9863;49.404;8.246;2023-12-20T12:17:29;2.28;;;1.00;;
19448;SDS011;9863;49.404;8.246;2023-12-20T12:20:04;9.50;;;0.90;;
19448;SDS011;9863;49.404;8.246;2023-12-20T12:22:32;6.85;;;1.17;;
19448;SDS011;9863;49.404;8.246;2023-12-20T12:25:08;4.22;;;1.52;;
19448;SDS011;9863;49.404;8.246;2023-12-20T12:27:37;3.13;;;1.20;;
19448;SDS011;9863;49.404;8.246;2023-12-20T12:30:06;5.82;;;1.20;;
19448;SDS011;9863;49.404;8.246;2023-12-20T12:32:36;3.95;;;1.42;;
19448;SDS011;9863;49.404;8.246;2023-12-20T12:35:04;19.25;;;4.18;;
19448;SDS011;9863;49.404;8.246;2023-12-20T12:37:39;2.83;;;1.27;;
19448;SDS011;9863;49.404;8.246;2023-12-20T12:40:07;1.98;;;0.95;;
19448;SDS011;9863;49.404;8.246;2023-12-20T12:42:37;4.47;;;1.30;;
19448;SDS011;9863;49.404;8.246;2023-12-20T12:45:04;3.47;;;0.93;;
19448;SDS011;9863;49.404;8.246;2023-12-20T12:47:31;1.63;;;0.90;;
19448;SDS011;9863;49.404;8.246;2023-12-20T12:49:58;2.42;;;0.95;;
19448;SDS011;9863;49.404;8.246;2023-12-20T12:52:25;2.75;;;1.10;;
19448;SDS011;9863;49.404;8.246;2023-12-20T12:54:53;5.40;;;1.20;;
19448;SDS011;9863;49.404;8.246;2023-12-20T12:57:20;4.32;;;0.98;;
19448;SDS011;9863;49.404;8.246;2023-12-20T12:59:47;3.47;;;1.00;;
19448;SDS011;9863;49.404;8.246;2023-12-20T13:02:13;3.28;;;0.90;;
19448;SDS011;9863;49.404;8.246;2023-12-20T13:04:41;3.55;;;1.13;;
19448;SDS011;9863;49.404;8.246;2023-12-20T13:07:09;7.28;;;1.00;;
19448;SDS011;9863;49.404;8.246;2023-12-20T13:09:39;3.33;;;0.70;;
19448;SDS011;9863;49.404;8.246;2023-12-20T13:12:06;4.60;;;0.75;;
19448;SDS011;9863;49.404;8.246;2023-12-20T13:14:34;2.63;;;0.95;;
19448;SDS011;9863;49.404;8.246;2023-12-20T13:17:01;7.38;;;1.13;;
19448;SDS011;9863;49.404;8.246;2023-12-20T13:19:28;3.13;;;1.08;;
19448;SDS011;9863;49.404;8.246;2023-12-20T13:21:55;2.22;;;0.88;;
19448;SDS011;9863;49.404;8.246;2023-12-20T13:24:22;2.83;;;0.75;;
19448;SDS011;9863;49.404;8.246;2023-12-20T13:26:49;1.58;;;0.80;;
19448;SDS011;9863;49.404;8.246;2023-12-20T13:29:16;6.88;;;1.35;;
19448;SDS011;9863;49.404;8.246;2023-12-20T13:31:43;5.07;;;0.82;;
19448;SDS011;9863;49.404;8.246;2023-12-20T13:34:10;5.13;;;0.68;;
19448;SDS011;9863;49.404;8.246;2023-12-20T13:36:37;2.67;;;1.15;;
19448;SDS011;9863;49.404;8.246;2023-12-20T13:39:04;3.72;;;1.33;;
19448;SDS011;9863;49.404;8.246;2023-12-20T13:41:31;4.53;;;1.08;;
19448;SDS011;9863;49.404;8.246;2023-12-20T13:43:58;4.15;;;1.00;;
19448;SDS011;9863;49.404;8.246;2023-12-20T13:46:25;5.07;;;1.50;;
19448;SDS011;9863;49.404;8.246;2023-12-20T13:48:51;3.10;;;1.10;;
19448;SDS011;9863;49.404;8.246;2023-12-20T13:51:18;4.15;;;0.73;;
19448;SDS011;9863;49.404;8.246;2023-12-20T13:53:47;1.60;;;0.95;;
19448;SDS011;9863;49.404;8.246;2023-12-20T13:56:15;3.92;;;1.13;;
19448;SDS011;9863;49.404;8.246;2023-12-20T13:58:42;4.47;;;0.75;;
19448;SDS011;9863;49.404;8.246;2023-12-20T14:01:09;4.75;;;1.00;;
19448;SDS011;9863;49.404;8.246;2023-12-20T14:03:37;4.88;;;1.00;;
19448;SDS011;9863;49.404;8.246;2023-12-20T14:06:04;5.20;;;1.10;;
19448;SDS011;9863;49.404;8.246;2023-12-20T14:08:31;4.32;;;1.55;;
19448;SDS011;9863;49.404;8.246;2023-12-20T14:10:58;1.60;;;0.68;;
19448;SDS011;9863;49.404;8.246;2023-12-20T14:13:24;2.10;;;0.85;;
19448;SDS011;9863;49.404;8.246;2023-12-20T14:15:51;2.42;;;1.25;;
19448;SDS011;9863;49.404;8.246;2023-12-20T14:18:18;5.25;;;0.85;;
19448;SDS011;9863;49.404;8.246;2023-12-20T14:20:45;1.50;;;0.77;;
19448;SDS011;9863;49.404;8.246;2023-12-20T14:23:13;2.40;;;0.90;;
19448;SDS011;9863;49.404;8.246;2023-12-20T14:25:43;4.38;;;0.77;;
19448;SDS011;9863;49.404;8.246;2023-12-20T14:28:17;2.55;;;1.00;;
19448;SDS011;9863;49.404;8.246;2023-12-20T14:30:44;4.20;;;0.70;;
19448;SDS011;9863;49.404;8.246;2023-12-20T14:33:11;1.77;;;0.80;;
19448;SDS011;9863;49.404;8.246;2023-12-20T14:35:38;3.70;;;0.88;;
19448;SDS011;9863;49.404;8.246;2023-12-20T14:38:05;2.70;;;0.90;;
19448;SDS011;9863;49.404;8.246;2023-12-20T14:40:32;5.53;;;1.05;;
19448;SDS011;9863;49.404;8.246;2023-12-20T14:42:59;14.52;;;5.03;;
19448;SDS011;9863;49.404;8.246;2023-12-20T14:45:26;8.55;;;3.35;;
19448;SDS011;9863;49.404;8.246;2023-12-20T14:47:54;4.57;;;2.00;;
19448;SDS011;9863;49.404;8.246;2023-12-20T14:50:20;2.03;;;0.82;;
19448;SDS011;9863;49.404;8.246;2023-12-20T14:52:48;3.38;;;1.23;;
19448;SDS011;9863;49.404;8.246;2023-12-20T14:55:15;3.17;;;1.05;;
19448;SDS011;9863;49.404;8.246;2023-12-20T14:57:43;3.20;;;0.85;;
19448;SDS011;9863;49.404;8.246;2023-12-20T15:00:11;1.77;;;0.90;;
19448;SDS011;9863;49.404;8.246;2023-12-20T15:02:42;3.55;;;1.05;;
19448;SDS011;9863;49.404;8.246;2023-12-20T15:05:10;4.18;;;1.05;;
19448;SDS011;9863;49.404;8.246;2023-12-20T15:07:36;2.53;;;0.60;;
19448;SDS011;9863;49.404;8.246;2023-12-20T15:10:04;3.00;;;0.90;;
19448;SDS011;9863;49.404;8.246;2023-12-20T15:12:31;3.92;;;1.05;;
19448;SDS011;9863;49.404;8.246;2023-12-20T15:15:00;3.17;;;1.25;;
19448;SDS011;9863;49.404;8.246;2023-12-20T15:17:27;7.05;;;1.17;;